Time;durP1;ratioP1;P1;durP2;ratioP2;P2;SDS_P1;SDS_P2;PMS_P1;PMS_P2;Temp;Humidity;BMP_temperature;BMP_pressure;BME280_temperature;BME280_humidity;BME280_pressure;Samples;Min_cycle;Max_cycle;Signal;HPM_P1;HPM_P2
2022/09/17 00:00:20;;;;;;;1.13;0.63;;;;;;;10.50;nan;97738.50;5035381;28;20280;-71
2022/09/17 00:02:54;;;;;;;1.50;0.90;;;;;;;10.58;nan;97740.03;5035584;28;20268;-71
2022/09/17 00:05:22;;;;;;;1.77;0.80;;;;;;;10.55;nan;97729.88;5035923;28;20201;-71
2022/09/17 00:07:50;;;;;;;2.10;0.93;;;;;;;10.54;nan;97737.03;5035824;28;20206;-71
2022/09/17 00:10:18;;;;;;;1.60;0.60;;;;;;;10.55;nan;97735.19;5036162;28;20226;-71
2022/09/17 00:12:45;;;;;;;2.70;0.70;;;;;;;10.50;nan;97751.00;5035867;28;20212;-70
2022/09/17 00:15:11;;;;;;;0.83;0.73;;;;;;;10.49;nan;97747.53;5035877;28;20545;-71
2022/09/17 00:17:38;;;;;;;1.00;0.90;;;;;;;10.44;nan;97744.72;5035796;28;20241;-71
2022/09/17 00:20:06;;;;;;;2.43;0.83;;;;;;;10.45;nan;97741.03;5035852;28;20266;-71
2022/09/17 00:22:33;;;;;;;1.50;0.50;;;;;;;10.52;nan;97743.59;5035738;28;20300;-71
2022/09/17 00:24:59;;;;;;;2.80;0.80;;;;;;;10.47;nan;97738.16;5035783;28;20208;-71
2022/09/17 00:27:25;;;;;;;2.50;0.87;;;;;;;10.47;nan;97746.13;5035593;28;20213;-71
2022/09/17 00:29:52;;;;;;;3.80;0.93;;;;;;;10.40;nan;97742.72;5035051;28;20226;-71
2022/09/17 00:32:18;;;;;;;3.00;0.80;;;;;;;10.46;nan;97742.66;5035337;28;20206;-71
2022/09/17 00:34:45;;;;;;;3.43;0.80;;;;;;;10.49;nan;97744.03;5035526;28;20215;-71
2022/09/17 00:37:12;;;;;;;0.83;0.70;;;;;;;10.52;nan;97748.91;5035014;28;20225;-71
2022/09/17 00:39:38;;;;;;;3.00;0.70;;;;;;;10.57;nan;97746.38;5035047;28;20241;-71
2022/09/17 00:42:09;;;;;;;2.17;0.70;;;;;;;10.56;nan;97745.59;5035321;28;20205;-71
2022/09/17 00:44:35;;;;;;;0.90;0.80;;;;;;;10.60;nan;97737.97;5034855;28;20513;-71
2022/09/17 00:47:02;;;;;;;1.20;0.80;;;;;;;10.69;nan;97734.75;5035120;28;20209;-71
2022/09/17 00:49:30;;;;;;;2.13;1.10;;;;;;;10.66;nan;97739.72;5034620;28;20701;-71
2022/09/17 00:52:33;;;;;;;2.90;1.10;;;;;;;10.57;nan;97746.38;5034868;28;20194;-70
2022/09/17 00:55:16;;;;;;;3.00;1.10;;;;;;;10.52;nan;97735.63;5029443;28;20206;-71
2022/09/17 00:57:44;;;;;;;2.00;1.10;;;;;;;10.37;nan;97740.53;5034779;28;20209;-71
2022/09/17 01:00:13;;;;;;;1.57;0.80;;;;;;;10.46;nan;97745.31;5034861;28;20222;-71
2022/09/17 01:02:39;;;;;;;2.97;1.20;;;;;;;10.50;nan;97746.47;5034873;28;20218;-71
2022/09/17 01:05:07;;;;;;;2.07;1.00;;;;;;;10.36;nan;97744.25;5034810;28;20208;-71
2022/09/17 01:07:52;;;;;;;1.40;1.07;;;;;;;10.33;nan;97748.13;5049861;28;20201;-71
2022/09/17 01:10:21;;;;;;;1.67;1.00;;;;;;;10.31;nan;97750.22;5034776;28;20237;-71
2022/09/17 01:12:54;;;;;;;1.20;0.90;;;;;;;10.31;nan;97763.50;5034474;28;20683;-71
2022/09/17 01:15:23;;;;;;;2.63;1.07;;;;;;;10.25;nan;97758.28;5035222;28;20194;-71
2022/09/17 01:18:11;;;;;;;3.10;1.03;;;;;;;10.17;nan;97759.41;5034769;28;20236;-71
2022/09/17 01:20:58;;;;;;;3.13;0.97;;;;;;;10.22;nan;97758.72;5034331;28;20222;-71
2022/09/17 01:23:43;;;;;;;2.27;1.30;;;;;;;10.23;nan;97768.31;5034301;28;20661;-71
2022/09/17 01:26:25;;;;;;;1.00;0.90;;;;;;;10.23;nan;97763.00;5034509;28;20209;-71
2022/09/17 01:28:57;;;;;;;2.93;1.27;;;;;;;10.20;nan;97761.63;5034537;28;20194;-71
2022/09/17 01:31:49;;;;;;;1.70;0.90;;;;;;;10.13;nan;97763.53;5034129;28;20228;-71
2022/09/17 01:34:33;;;;;;;2.97;0.90;;;;;;;10.21;nan;97765.06;5034107;28;20300;-71
2022/09/17 01:37:31;;;;;;;1.90;1.00;;;;;;;10.18;nan;97762.88;5034314;28;20260;-71
2022/09/17 01:40:12;;;;;;;3.47;1.10;;;;;;;10.24;nan;97765.44;5033993;28;20774;-71
2022/09/17 01:42:49;;;;;;;3.03;1.00;;;;;;;10.24;nan;97773.41;5033170;28;20633;-71
2022/09/17 01:45:26;;;;;;;2.97;0.90;;;;;;;10.28;nan;97771.91;5035042;28;20201;-71
2022/09/17 01:47:56;;;;;;;1.10;0.97;;;;;;;10.31;nan;97776.78;5049181;28;20197;-71
2022/09/17 01:50:31;;;;;;;1.20;1.03;;;;;;;10.33;nan;97771.25;5034113;28;20234;-71
2022/09/17 01:52:58;;;;;;;3.83;1.40;;;;;;;10.33;nan;97781.88;5034138;28;20189;-71
2022/09/17 01:55:29;;;;;;;3.60;1.10;;;;;;;10.40;nan;97782.59;5034050;28;20206;-70
2022/09/17 01:58:10;;;;;;;2.83;1.20;;;;;;;10.42;nan;97775.22;5033984;28;20553;-71
2022/09/17 02:00:41;;;;;;;1.73;1.10;;;;;;;10.38;nan;97779.38;5033929;28;20221;-71
2022/09/17 02:03:20;;;;;;;1.67;0.80;;;;;;;10.39;nan;97773.00;5033924;28;20240;-71
2022/09/17 02:05:55;;;;;;;4.07;1.23;;;;;;;10.41;nan;97773.59;5033960;28;20193;-71
2022/09/17 02:08:25;;;;;;;1.27;0.90;;;;;;;10.37;nan;97780.41;5033451;28;20652;-70
2022/09/17 02:10:58;;;;;;;2.37;0.97;;;;;;;10.40;nan;97782.59;5033409;28;20226;-71
2022/09/17 02:13:28;;;;;;;2.87;1.10;;;;;;;10.36;nan;97779.56;5033767;28;20197;-71
2022/09/17 02:16:05;;;;;;;4.80;1.40;;;;;;;10.37;nan;97772.44;5033672;28;20208;-71
2022/09/17 02:19:06;;;;;;;2.07;1.10;;;;;;;10.39;nan;97776.50;5033596;28;20213;-71
2022/09/17 02:21:55;;;;;;;2.27;1.00;;;;;;;10.26;nan;97773.16;5026012;28;20304;-71
2022/09/17 02:24:31;;;;;;;5.23;1.20;;;;;;;10.32;nan;97767.78;5048471;28;20193;-70
2022/09/17 02:27:09;;;;;;;4.27;1.00;;;;;;;10.32;nan;97772.28;5032254;28;20189;-71
2022/09/17 02:29:40;;;;;;;3.60;1.00;;;;;;;10.22;nan;97769.34;5032398;28;20222;-70
2022/09/17 02:32:06;;;;;;;2.73;1.17;;;;;;;10.19;nan;97773.25;5033155;28;20664;-71
2022/09/17 02:34:33;;;;;;;4.40;1.20;;;;;;;10.24;nan;97767.28;5033404;28;20205;-71
2022/09/17 02:37:00;;;;;;;1.90;1.20;;;;;;;10.24;nan;97769.94;5033306;28;20234;-71
2022/09/17 02:39:27;;;;;;;2.47;1.00;;;;;;;10.27;nan;97766.84;5033252;28;20249;-71
2022/09/17 02:42:04;;;;;;;5.50;1.10;;;;;;;10.25;nan;97760.94;5033279;28;20206;-71
2022/09/17 02:44:42;;;;;;;2.97;1.10;;;;;;;10.32;nan;97764.31;5033359;28;20627;-71
2022/09/17 02:47:36;;;;;;;2.20;1.00;;;;;;;10.35;nan;97777.97;5033129;28;20660;-71
2022/09/17 02:50:13;;;;;;;2.87;1.10;;;;;;;10.38;nan;97766.06;5029053;28;20237;-71
2022/09/17 02:52:51;;;;;;;2.93;1.30;;;;;;;10.31;nan;97758.19;5033103;28;20532;-71
2022/09/17 02:55:23;;;;;;;3.37;1.10;;;;;;;10.33;nan;97757.97;5037230;28;20197;-71
2022/09/17 02:58:17;;;;;;;1.60;0.80;;;;;;;10.32;nan;97756.34;5037301;28;20246;-71
2022/09/17 03:00:44;;;;;;;2.73;1.10;;;;;;;10.36;nan;97760.19;5037258;28;20225;-71
2022/09/17 03:03:37;;;;;;;5.93;1.27;;;;;;;10.29;nan;97770.06;5037134;28;20213;-71
2022/09/17 03:06:05;;;;;;;2.00;0.90;;;;;;;10.30;nan;97761.06;5049359;28;20206;-71
2022/09/17 03:08:38;;;;;;;3.40;1.30;;;;;;;10.23;nan;97752.38;5036720;28;20684;-71
2022/09/17 03:11:07;;;;;;;4.97;1.13;;;;;;;10.21;nan;97757.91;5036971;28;20230;-71
2022/09/17 03:13:34;;;;;;;3.67;1.10;;;;;;;10.12;nan;97755.78;5036664;28;20212;-71
2022/09/17 03:16:04;;;;;;;2.07;0.90;;;;;;;10.02;nan;97756.28;5036709;28;20692;-71
2022/09/17 03:18:31;;;;;;;4.30;1.30;;;;;;;10.02;nan;97760.78;5036891;28;20225;-71
2022/09/17 03:20:58;;;;;;;1.50;0.90;;;;;;;10.07;nan;97759.13;5036828;28;20225;-71
2022/09/17 03:23:24;;;;;;;2.07;1.07;;;;;;;10.05;nan;97753.19;5037047;28;20217;-71
2022/09/17 03:25:51;;;;;;;2.27;1.30;;;;;;;9.99;nan;97753.25;5036594;28;20256;-71
2022/09/17 03:28:17;;;;;;;3.17;0.90;;;;;;;9.84;nan;97752.81;5036606;28;20252;-71
2022/09/17 03:30:45;;;;;;;3.63;1.10;;;;;;;9.76;nan;97751.25;5036432;28;20232;-71
2022/09/17 03:33:12;;;;;;;3.63;0.97;;;;;;;9.96;nan;97762.47;5036460;28;20217;-71
2022/09/17 03:35:43;;;;;;;3.17;1.40;;;;;;;9.98;nan;97764.91;5036318;28;20202;-71
2022/09/17 03:38:09;;;;;;;2.70;0.97;;;;;;;9.90;nan;97765.19;5036549;28;20214;-71
2022/09/17 03:40:35;;;;;;;3.33;1.17;;;;;;;9.94;nan;97772.50;5036222;28;20230;-71
2022/09/17 03:43:02;;;;;;;3.80;1.27;;;;;;;9.91;nan;97761.53;5036275;28;20225;-71
2022/09/17 03:45:28;;;;;;;3.10;1.10;;;;;;;9.88;nan;97768.09;5036125;28;20213;-71
2022/09/17 03:47:55;;;;;;;2.13;1.10;;;;;;;9.88;nan;97777.88;5036458;28;20204;-71
2022/09/17 03:50:22;;;;;;;6.20;0.93;;;;;;;9.82;nan;97784.09;5036248;28;20328;-71
2022/09/17 03:52:48;;;;;;;3.20;1.20;;;;;;;9.88;nan;97789.34;5035975;28;20213;-71
2022/09/17 03:55:16;;;;;;;4.33;1.13;;;;;;;9.69;nan;97787.66;5035953;28;20215;-71
2022/09/17 03:57:42;;;;;;;2.57;0.93;;;;;;;9.71;nan;97776.84;5036321;28;20252;-71
2022/09/17 04:00:11;;;;;;;3.43;1.23;;;;;;;9.72;nan;97791.72;5035663;28;20700;-71
2022/09/17 04:02:37;;;;;;;2.90;1.00;;;;;;;9.70;nan;97791.97;5035976;28;20206;-71
2022/09/17 04:05:04;;;;;;;1.53;1.20;;;;;;;9.72;nan;97786.41;5035120;28;20289;-71
2022/09/17 04:07:31;;;;;;;1.93;0.90;;;;;;;9.79;nan;97797.78;5035981;28;20562;-70
2022/09/17 04:09:57;;;;;;;2.60;1.20;;;;;;;9.71;nan;97790.13;5035538;28;20238;-71
2022/09/17 04:12:23;;;;;;;3.23;0.90;;;;;;;9.70;nan;97793.81;5035841;28;20217;-71
2022/09/17 04:14:49;;;;;;;1.93;1.10;;;;;;;9.71;nan;97787.47;5035794;28;20210;-71
2022/09/17 04:17:17;;;;;;;3.93;1.07;;;;;;;9.69;nan;97792.97;5035772;28;20232;-71
2022/09/17 04:19:44;;;;;;;2.90;1.10;;;;;;;9.70;nan;97791.97;5035668;28;20222;-71
2022/09/17 04:22:10;;;;;;;3.47;1.07;;;;;;;9.61;nan;97789.81;5035397;28;20209;-71
2022/09/17 04:24:37;;;;;;;3.67;1.10;;;;;;;9.71;nan;97782.97;5036505;28;20206;-71
2022/09/17 04:27:03;;;;;;;3.23;1.10;;;;;;;9.76;nan;97783.13;5035688;28;20204;-71
2022/09/17 04:29:29;;;;;;;7.10;1.07;;;;;;;9.68;nan;97787.91;5035707;28;20234;-71
2022/09/17 04:31:56;;;;;;;3.30;0.83;;;;;;;9.72;nan;97789.06;5035287;28;20696;-71
2022/09/17 04:34:22;;;;;;;4.77;1.30;;;;;;;9.64;nan;97792.03;5035580;28;20206;-71
2022/09/17 04:36:49;;;;;;;3.77;0.93;;;;;;;9.75;nan;97793.97;5035403;28;20206;-71
2022/09/17 04:39:16;;;;;;;6.87;1.60;;;;;;;9.77;nan;97797.22;5035315;28;20241;-71
2022/09/17 04:41:42;;;;;;;6.00;1.13;;;;;;;9.81;nan;97801.03;5035014;28;20242;-71
2022/09/17 04:44:08;;;;;;;5.17;1.53;;;;;;;9.80;nan;97810.03;5035263;28;20205;-71
2022/09/17 04:46:35;;;;;;;2.43;1.20;;;;;;;9.78;nan;97815.56;5035267;28;20201;-71
2022/09/17 04:49:01;;;;;;;2.70;1.30;;;;;;;9.79;nan;97821.69;5035120;28;20213;-70
2022/09/17 04:51:27;;;;;;;5.20;1.00;;;;;;;9.80;nan;97825.97;5034796;28;20213;-71
2022/09/17 04:53:54;;;;;;;3.93;1.20;;;;;;;9.94;nan;97817.66;5034800;28;20210;-71
2022/09/17 04:56:20;;;;;;;3.67;1.07;;;;;;;9.79;nan;97816.38;5034794;28;20677;-70
2022/09/17 04:58:46;;;;;;;4.77;1.33;;;;;;;9.89;nan;97808.72;5034966;28;20585;-71
2022/09/17 05:01:14;;;;;;;3.20;1.23;;;;;;;9.87;nan;97819.53;5034592;28;20564;-71
2022/09/17 05:03:40;;;;;;;2.17;1.10;;;;;;;9.90;nan;97824.44;5034992;28;20212;-71
2022/09/17 05:06:06;;;;;;;5.33;1.30;;;;;;;9.78;nan;97828.81;5034864;28;20205;-71
2022/09/17 05:08:33;;;;;;;4.37;1.30;;;;;;;9.71;nan;97827.28;5034670;28;20202;-71
2022/09/17 05:10:59;;;;;;;6.37;1.33;;;;;;;9.82;nan;97835.31;5034718;28;20222;-71
2022/09/17 05:13:25;;;;;;;4.87;1.40;;;;;;;9.86;nan;97831.22;5034793;28;20206;-71
2022/09/17 05:15:55;;;;;;;4.83;1.10;;;;;;;9.83;nan;97828.19;5034672;28;20202;-71
2022/09/17 05:18:21;;;;;;;7.50;1.60;;;;;;;9.78;nan;97826.19;5034542;28;20218;-71
2022/09/17 05:20:48;;;;;;;6.13;1.37;;;;;;;9.78;nan;97828.81;5035136;28;20230;-71
2022/09/17 05:23:14;;;;;;;3.73;1.30;;;;;;;9.78;nan;97833.34;5034425;28;20272;-71
2022/09/17 05:25:40;;;;;;;7.10;1.90;;;;;;;9.65;nan;97828.16;5034163;28;20213;-71
2022/09/17 05:28:07;;;;;;;4.93;1.60;;;;;;;9.72;nan;97831.53;5034441;28;20203;-71
2022/09/17 05:30:33;;;;;;;5.40;1.70;;;;;;;9.67;nan;97828.75;5034555;28;20260;-71
2022/09/17 05:33:01;;;;;;;8.27;1.50;;;;;;;9.60;nan;97830.66;5034319;28;20210;-71
2022/09/17 05:35:29;;;;;;;2.70;1.40;;;;;;;9.62;nan;97829.41;5034377;28;20233;-71
2022/09/17 05:37:59;;;;;;;5.23;1.47;;;;;;;9.64;nan;97839.81;5034005;28;20229;-71
2022/09/17 05:40:26;;;;;;;5.60;1.17;;;;;;;9.67;nan;97848.16;5033561;28;20226;-71
2022/09/17 05:42:58;;;;;;;5.63;1.53;;;;;;;9.66;nan;97840.38;5034168;28;20202;-71
2022/09/17 05:45:24;;;;;;;3.30;1.30;;;;;;;9.58;nan;97846.78;5034178;28;20194;-71
2022/09/17 05:47:58;;;;;;;4.23;1.20;;;;;;;9.65;nan;97838.78;5034283;28;20215;-70
2022/09/17 05:50:26;;;;;;;6.33;1.60;;;;;;;9.67;nan;97834.88;5033815;28;20240;-70
2022/09/17 05:52:53;;;;;;;4.17;1.33;;;;;;;9.68;nan;97841.00;5034026;28;20212;-70
2022/09/17 05:55:21;;;;;;;3.87;1.47;;;;;;;9.74;nan;97842.78;5033967;28;20201;-70
2022/09/17 05:57:48;;;;;;;4.23;1.70;;;;;;;9.86;nan;97849.00;5033931;28;20234;-70
2022/09/17 06:00:15;;;;;;;4.40;1.23;;;;;;;9.92;nan;97853.44;5033462;28;20232;-70
2022/09/17 06:02:42;;;;;;;6.47;1.30;;;;;;;9.81;nan;97854.94;5033354;28;20741;-70
2022/09/17 06:05:09;;;;;;;4.50;1.37;;;;;;;10.00;nan;97861.13;5033444;28;20691;-70
2022/09/17 06:07:36;;;;;;;1.53;1.20;;;;;;;10.07;nan;97859.22;5034255;28;20213;-70
2022/09/17 06:10:04;;;;;;;3.97;1.50;;;;;;;10.13;nan;97853.00;5033292;28;20236;-70
2022/09/17 06:12:30;;;;;;;4.53;1.50;;;;;;;10.16;nan;97868.53;5033977;28;20209;-71
2022/09/17 06:14:57;;;;;;;5.67;1.80;;;;;;;10.05;nan;97866.59;5033730;28;20206;-70
2022/09/17 06:17:23;;;;;;;7.03;1.50;;;;;;;10.08;nan;97863.50;5033662;28;20205;-70
2022/09/17 06:19:50;;;;;;;7.63;1.53;;;;;;;9.98;nan;97868.47;5033618;28;20225;-71
2022/09/17 06:22:19;;;;;;;4.03;1.53;;;;;;;10.08;nan;97868.81;5033542;28;20202;-70
2022/09/17 06:24:46;;;;;;;5.90;1.70;;;;;;;9.98;nan;97871.94;5033510;28;20202;-70
2022/09/17 06:27:12;;;;;;;3.77;1.40;;;;;;;10.21;nan;97873.97;5033446;28;20206;-70
2022/09/17 06:29:39;;;;;;;7.60;1.77;;;;;;;10.10;nan;97875.53;5032907;28;20228;-70
2022/09/17 06:32:09;;;;;;;6.87;1.90;;;;;;;10.15;nan;97880.19;5033460;28;20203;-70
2022/09/17 06:34:36;;;;;;;4.47;1.53;;;;;;;10.08;nan;97890.88;5033489;28;20186;-70
2022/09/17 06:37:02;;;;;;;3.20;1.60;;;;;;;10.16;nan;97890.59;5033481;28;20206;-70
2022/09/17 06:39:28;;;;;;;8.40;1.87;;;;;;;10.18;nan;97890.38;5033740;28;20251;-71
2022/09/17 06:41:55;;;;;;;9.57;1.70;;;;;;;10.21;nan;97881.94;5032966;28;20568;-70
2022/09/17 06:44:21;;;;;;;2.53;1.30;;;;;;;10.24;nan;97886.84;5033275;28;20637;-69
2022/09/17 06:46:50;;;;;;;2.50;1.43;;;;;;;10.22;nan;97895.03;5033283;28;20561;-70
2022/09/17 06:49:18;;;;;;;3.33;1.27;;;;;;;10.08;nan;97884.75;5033664;28;20198;-70
2022/09/17 06:51:45;;;;;;;5.00;1.60;;;;;;;10.18;nan;97899.16;5032975;28;20645;-70
2022/09/17 06:54:11;;;;;;;6.60;1.70;;;;;;;10.24;nan;97902.78;5033177;28;20209;-70
2022/09/17 06:56:38;;;;;;;5.93;1.40;;;;;;;10.26;nan;97898.88;5033155;28;20216;-70
2022/09/17 06:59:04;;;;;;;5.07;1.60;;;;;;;10.35;nan;97897.53;5033040;28;20587;-70
2022/09/17 07:01:31;;;;;;;8.80;1.80;;;;;;;10.31;nan;97899.00;5033131;28;20206;-70
2022/09/17 07:03:58;;;;;;;3.97;1.47;;;;;;;10.44;nan;97890.91;5033184;28;20213;-70
2022/09/17 07:06:24;;;;;;;8.70;1.60;;;;;;;10.35;nan;97902.03;5033199;28;20206;-70
2022/09/17 07:08:50;;;;;;;6.63;1.57;;;;;;;10.16;nan;97900.41;5032991;28;20574;-70
2022/09/17 07:11:17;;;;;;;3.53;1.67;;;;;;;10.16;nan;97892.44;5032886;28;20582;-70
2022/09/17 07:13:43;;;;;;;2.97;1.20;;;;;;;10.02;nan;97896.22;5033063;28;20680;-70
2022/09/17 07:16:10;;;;;;;4.80;1.27;;;;;;;9.91;nan;97907.56;5032711;28;20217;-71
2022/09/17 07:18:37;;;;;;;5.27;1.53;;;;;;;10.09;nan;97908.44;5032601;28;20221;-70
2022/09/17 07:21:05;;;;;;;7.23;1.70;;;;;;;10.17;nan;97915.28;5032722;28;20226;-70
2022/09/17 07:23:34;;;;;;;3.50;1.20;;;;;;;9.99;nan;97920.53;5032860;28;20209;-71
2022/09/17 07:26:03;;;;;;;3.50;1.23;;;;;;;9.93;nan;97919.59;5032951;28;20293;-71
2022/09/17 07:28:30;;;;;;;5.03;1.90;;;;;;;9.88;nan;97921.28;5032778;28;20202;-70
2022/09/17 07:30:57;;;;;;;7.57;1.80;;;;;;;9.63;nan;97934.53;5033028;28;20226;-70
2022/09/17 07:33:26;;;;;;;4.00;1.50;;;;;;;9.64;nan;97922.09;5032696;28;20217;-70
2022/09/17 07:36:04;;;;;;;4.13;2.00;;;;;;;9.57;nan;97926.63;5032331;28;20205;-70
2022/09/17 07:38:30;;;;;;;4.97;2.00;;;;;;;9.52;nan;97927.28;5032975;28;20210;-70
2022/09/17 07:41:02;;;;;;;8.77;1.87;;;;;;;9.61;nan;97931.28;5033982;28;20724;-70
2022/09/17 07:43:32;;;;;;;2.90;1.80;;;;;;;9.52;nan;97937.06;5036287;28;20192;-70
2022/09/17 07:45:59;;;;;;;3.77;2.13;;;;;;;9.51;nan;97928.28;5036270;28;20213;-70
2022/09/17 07:48:27;;;;;;;6.60;2.40;;;;;;;9.57;nan;97929.28;5036202;28;20206;-70
2022/09/17 07:50:54;;;;;;;5.90;2.30;;;;;;;9.64;nan;97933.50;5035686;28;20261;-70
2022/09/17 07:53:21;;;;;;;3.03;1.60;;;;;;;9.36;nan;97935.75;5035816;28;20209;-71
2022/09/17 07:55:55;;;;;;;5.73;2.23;;;;;;;9.51;nan;97940.75;5036243;28;20263;-70
2022/09/17 07:58:24;;;;;;;6.07;1.90;;;;;;;9.59;nan;97943.16;5036067;28;20590;-70
2022/09/17 08:00:50;;;;;;;1.97;1.53;;;;;;;9.72;nan;97943.03;5035889;28;20226;-70
2022/09/17 08:03:17;;;;;;;2.37;1.60;;;;;;;9.79;nan;97957.09;5035915;28;20210;-70
2022/09/17 08:05:43;;;;;;;5.07;2.30;;;;;;;9.76;nan;97954.84;5035961;28;20205;-70
2022/09/17 08:08:09;;;;;;;9.87;2.40;;;;;;;9.84;nan;97951.94;5036008;28;20197;-70
2022/09/17 08:10:36;;;;;;;11.43;2.30;;;;;;;9.83;nan;97956.41;5035680;28;20226;-70
2022/09/17 08:13:02;;;;;;;6.13;1.87;;;;;;;9.87;nan;97951.50;5035735;28;20210;-70
2022/09/17 08:15:28;;;;;;;5.10;1.90;;;;;;;9.86;nan;97955.22;5035817;28;20209;-70
2022/09/17 08:17:55;;;;;;;4.80;1.80;;;;;;;9.95;nan;97961.84;5035715;28;20209;-70
2022/09/17 08:20:23;;;;;;;5.57;1.93;;;;;;;10.01;nan;97961.00;5035469;28;20228;-70
2022/09/17 08:22:49;;;;;;;6.20;1.93;;;;;;;10.00;nan;97965.47;5035345;28;20695;-70
2022/09/17 08:25:15;;;;;;;3.97;1.90;;;;;;;10.02;nan;97962.63;5035527;28;20206;-70
2022/09/17 08:27:42;;;;;;;7.23;2.30;;;;;;;10.05;nan;97957.69;5035142;28;20228;-70
2022/09/17 08:30:09;;;;;;;4.27;2.30;;;;;;;10.15;nan;97957.22;5035395;28;20225;-70
2022/09/17 08:32:35;;;;;;;5.53;2.20;;;;;;;10.09;nan;97950.94;5035558;28;20216;-70
2022/09/17 08:35:02;;;;;;;6.10;2.23;;;;;;;10.27;nan;97958.13;5035434;28;20206;-70
2022/09/17 08:37:29;;;;;;;5.80;2.87;;;;;;;10.31;nan;97959.28;5035853;28;20210;-71
2022/09/17 08:39:56;;;;;;;5.63;2.17;;;;;;;10.53;nan;97955.19;5035236;28;20240;-70
2022/09/17 08:42:37;;;;;;;7.43;2.17;;;;;;;10.54;nan;97951.53;5035284;28;20219;-70
2022/09/17 08:45:09;;;;;;;8.90;2.80;;;;;;;10.57;nan;97959.03;5049397;28;20649;-71
2022/09/17 08:47:42;;;;;;;7.63;2.23;;;;;;;10.74;nan;97952.94;5035241;28;20194;-71
2022/09/17 08:50:16;;;;;;;9.17;2.30;;;;;;;10.65;nan;97951.59;5033823;28;20664;-70
2022/09/17 08:53:23;;;;;;;6.37;2.50;;;;;;;10.71;nan;97958.69;5034689;28;20248;-71
2022/09/17 08:56:05;;;;;;;9.23;2.57;;;;;;;10.93;nan;97961.69;5027486;28;20660;-71
2022/09/17 08:58:49;;;;;;;7.87;2.23;;;;;;;10.90;nan;97962.94;5034528;28;20212;-70
2022/09/17 09:01:39;;;;;;;12.13;2.70;;;;;;;10.96;nan;97959.38;5034800;28;20248;-71
2022/09/17 09:04:21;;;;;;;7.23;2.20;;;;;;;11.28;nan;97965.34;5034850;28;20668;-71
2022/09/17 09:07:18;;;;;;;8.33;2.80;;;;;;;11.03;nan;97975.25;5034997;28;20194;-70
2022/09/17 09:09:52;;;;;;;7.10;2.03;;;;;;;11.20;nan;97970.97;5025286;28;20705;-70
2022/09/17 09:12:25;;;;;;;9.20;2.43;;;;;;;11.20;nan;97973.63;5049536;28;20646;-71
2022/09/17 09:15:00;;;;;;;7.53;2.30;;;;;;;11.19;nan;97969.34;5034190;28;20194;-70
2022/09/17 09:17:35;;;;;;;8.13;1.83;;;;;;;11.10;nan;97970.69;5034825;28;20200;-70
2022/09/17 09:20:02;;;;;;;5.60;1.70;;;;;;;11.07;nan;97974.63;5034032;28;20229;-71
2022/09/17 09:22:43;;;;;;;5.47;2.00;;;;;;;11.01;nan;97972.81;5034325;28;20573;-70
2022/09/17 09:25:19;;;;;;;5.87;2.03;;;;;;;11.18;nan;97961.59;5034249;28;20655;-70
2022/09/17 09:28:00;;;;;;;7.60;2.23;;;;;;;11.23;nan;97964.38;5034203;28;20301;-70
2022/09/17 09:30:35;;;;;;;6.90;1.80;;;;;;;11.12;nan;97968.59;5034229;28;20225;-70
2022/09/17 09:33:17;;;;;;;10.37;2.63;;;;;;;11.08;nan;97967.44;5033969;28;20652;-70
2022/09/17 09:35:44;;;;;;;8.50;2.10;;;;;;;11.18;nan;97967.72;5033972;28;20214;-70
2022/09/17 09:38:14;;;;;;;8.63;2.43;;;;;;;11.19;nan;97964.03;5034083;28;20206;-70
2022/09/17 09:40:51;;;;;;;11.20;2.60;;;;;;;11.31;nan;97964.06;5049059;28;20740;-70
2022/09/17 09:43:29;;;;;;;10.63;2.10;;;;;;;11.53;nan;97971.31;5033731;28;20548;-70
2022/09/17 09:46:07;;;;;;;5.43;2.07;;;;;;;11.60;nan;97977.41;5033973;28;20559;-70
2022/09/17 09:48:45;;;;;;;8.70;2.47;;;;;;;11.49;nan;97970.13;5049005;28;20190;-71
2022/09/17 09:51:25;;;;;;;7.23;2.00;;;;;;;11.38;nan;97962.13;5033795;28;20326;-70
2022/09/17 09:54:03;;;;;;;8.70;2.50;;;;;;;11.41;nan;97964.34;5048164;28;20190;-71
2022/09/17 09:56:41;;;;;;;7.60;1.87;;;;;;;11.48;nan;97967.72;5033956;28;20194;-70
2022/09/17 09:59:11;;;;;;;7.77;1.90;;;;;;;11.62;nan;97975.31;5033411;28;20696;-71
2022/09/17 10:01:41;;;;;;;4.90;1.77;;;;;;;11.84;nan;97970.28;5033920;28;20297;-70
2022/09/17 10:04:28;;;;;;;8.63;2.20;;;;;;;12.03;nan;97966.50;5033089;28;20555;-70
2022/09/17 10:07:02;;;;;;;4.63;1.57;;;;;;;11.93;nan;97971.59;5033373;28;20222;-70
2022/09/17 10:09:31;;;;;;;6.03;2.00;;;;;;;11.93;nan;97976.91;5033606;28;20260;-70
2022/09/17 10:12:09;;;;;;;2.73;1.50;;;;;;;11.88;nan;97974.91;5033680;28;20229;-70
2022/09/17 10:14:41;;;;;;;5.77;2.03;;;;;;;11.89;nan;97975.75;5033544;28;20211;-70
2022/09/17 10:17:16;;;;;;;5.03;1.80;;;;;;;11.72;nan;97988.09;5033557;28;20213;-71
2022/09/17 10:19:44;;;;;;;4.57;1.67;;;;;;;11.88;nan;97971.44;5033070;28;20700;-70
2022/09/17 10:22:30;;;;;;;5.47;2.03;;;;;;;12.13;nan;97975.56;5033508;28;20209;-70
2022/09/17 10:24:59;;;;;;;5.50;1.60;;;;;;;12.57;nan;97961.63;5048602;28;20558;-70
2022/09/17 10:27:26;;;;;;;3.67;1.50;;;;;;;12.95;nan;97967.25;5033383;28;20208;-70
2022/09/17 10:30:13;;;;;;;5.07;1.80;;;;;;;12.88;nan;97955.09;5033308;28;20414;-71
2022/09/17 10:32:40;;;;;;;4.57;1.80;;;;;;;12.88;nan;97953.22;5033148;28;20196;-70
2022/09/17 10:35:15;;;;;;;4.73;1.60;;;;;;;13.38;nan;97948.13;5032852;28;20549;-71
2022/09/17 10:37:47;;;;;;;6.47;2.10;;;;;;;13.15;nan;97950.88;5033162;28;20207;-70
2022/09/17 10:40:19;;;;;;;5.70;1.80;;;;;;;12.92;nan;97946.38;5033021;28;20582;-71
2022/09/17 10:42:47;;;;;;;4.53;1.43;;;;;;;13.12;nan;97941.44;5033301;28;20208;-70
2022/09/17 10:45:25;;;;;;;5.27;1.80;;;;;;;13.33;nan;97946.16;5033057;28;20307;-71
2022/09/17 10:47:52;;;;;;;5.30;1.33;;;;;;;13.08;nan;97943.00;5033007;28;20219;-70
2022/09/17 10:50:24;;;;;;;3.80;1.67;;;;;;;13.29;nan;97946.88;5032874;28;20243;-70
2022/09/17 10:52:54;;;;;;;2.83;1.20;;;;;;;13.14;nan;97949.22;5033273;28;20204;-70
2022/09/17 10:55:50;;;;;;;5.53;1.50;;;;;;;13.12;nan;97951.34;5033069;28;20312;-70
2022/09/17 10:58:48;;;;;;;3.50;2.00;;;;;;;13.20;nan;97941.09;5032915;28;20197;-70
2022/09/17 11:01:32;;;;;;;3.83;1.70;;;;;;;13.22;nan;97940.84;5031095;28;20265;-70
2022/09/17 11:04:24;;;;;;;5.20;1.70;;;;;;;13.31;nan;97939.41;5033081;28;20318;-70
2022/09/17 11:07:09;;;;;;;5.13;1.50;;;;;;;13.20;nan;97932.28;5032940;28;20207;-70
2022/09/17 11:09:50;;;;;;;6.60;1.53;;;;;;;13.46;nan;97937.84;5032899;28;20231;-70
2022/09/17 11:12:28;;;;;;;3.63;1.43;;;;;;;13.56;nan;97932.69;5033016;28;20192;-70
2022/09/17 11:15:19;;;;;;;3.80;1.40;;;;;;;13.51;nan;97929.91;5034376;28;20193;-71
2022/09/17 11:18:22;;;;;;;5.80;1.20;;;;;;;13.71;nan;97932.13;5037096;28;20195;-70
2022/09/17 11:21:03;;;;;;;6.87;1.50;;;;;;;13.56;nan;97927.34;5052047;28;20322;-70
2022/09/17 11:23:48;;;;;;;3.40;1.40;;;;;;;13.32;nan;97928.50;5036678;28;20196;-71
2022/09/17 11:27:02;;;;;;;3.83;1.40;;;;;;;13.63;nan;97925.34;5036681;28;20196;-70
2022/09/17 11:29:53;;;;;;;4.67;1.40;;;;;;;13.96;nan;97911.16;5051555;28;20235;-70
2022/09/17 11:32:59;;;;;;;2.47;1.50;;;;;;;14.07;nan;97921.75;5036289;28;20645;-70
2022/09/17 11:35:40;;;;;;;4.73;1.20;;;;;;;14.06;nan;97914.81;5036183;28;20660;-70
2022/09/17 11:38:36;;;;;;;4.70;1.30;;;;;;;13.95;nan;97909.53;5036361;28;20197;-70
2022/09/17 11:41:06;;;;;;;3.37;1.30;;;;;;;13.52;nan;97910.16;5028284;28;20579;-70
2022/09/17 11:43:36;;;;;;;3.50;1.10;;;;;;;13.67;nan;97913.13;5036358;28;20190;-71
2022/09/17 11:46:05;;;;;;;3.87;1.30;;;;;;;13.80;nan;97912.00;5036095;28;20568;-70
2022/09/17 11:48:46;;;;;;;2.37;1.20;;;;;;;13.87;nan;97909.94;5035945;28;20217;-70
2022/09/17 11:51:30;;;;;;;5.23;1.20;;;;;;;14.19;nan;97902.97;5036123;28;20237;-70
2022/09/17 11:54:11;;;;;;;3.40;1.10;;;;;;;13.87;nan;97915.28;5036574;28;20198;-70
2022/09/17 11:56:48;;;;;;;4.13;1.20;;;;;;;13.95;nan;97899.69;5036034;28;20201;-70
2022/09/17 11:59:34;;;;;;;3.20;1.27;;;;;;;13.98;nan;97907.19;5034264;28;20700;-70
2022/09/17 12:02:16;;;;;;;3.80;1.30;;;;;;;13.99;nan;97906.16;5051402;28;20203;-71
2022/09/17 12:05:06;;;;;;;3.20;1.27;;;;;;;14.00;nan;97901.59;5036300;28;20211;-70
2022/09/17 12:07:57;;;;;;;2.00;1.10;;;;;;;13.90;nan;97899.59;5032002;28;20206;-70
2022/09/17 12:10:36;;;;;;;4.27;1.00;;;;;;;13.64;nan;97902.91;5035620;28;20226;-70
2022/09/17 12:13:31;;;;;;;2.53;1.10;;;;;;;13.60;nan;97903.63;5035309;28;20190;-70
2022/09/17 12:16:30;;;;;;;4.47;1.20;;;;;;;13.01;nan;97912.97;5035463;28;20248;-70
2022/09/17 12:19:19;;;;;;;2.40;1.27;;;;;;;12.59;nan;97892.88;5034815;28;20197;-70